Time;durP1;ratioP1;P1;durP2;ratioP2;P2;SDS_P1;SDS_P2;PMS_P1;PMS_P2;Temp;Humidity;BMP_temperature;BMP_pressure;BME280_temperature;BME280_humidity;BME280_pressure;Samples;Min_cycle;Max_cycle;Signal;HPM_P1;HPM_P2
2023/07/18 00:00:53;;;;;;;6.60;1.87;;;;;;;23.06;42.49;98007.47;5012068;28;20445;-72
2023/07/18 00:03:19;;;;;;;4.30;2.13;;;;;;;23.04;42.57;98004.22;5007528;28;20381;-71
2023/07/18 00:05:44;;;;;;;2.10;1.90;;;;;;;23.06;42.55;98002.13;5010312;28;20185;-69
2023/07/18 00:08:10;;;;;;;5.27;2.20;;;;;;;23.10;42.55;98006.00;5008479;28;20426;-72
2023/07/18 00:10:36;;;;;;;3.90;2.20;;;;;;;23.04;42.68;98006.88;5012888;28;20210;-72
2023/07/18 00:13:02;;;;;;;6.47;2.37;;;;;;;23.02;42.66;98003.59;5003083;28;20204;-73
2023/07/18 00:15:28;;;;;;;5.90;2.40;;;;;;;22.97;43.04;98001.56;5004518;28;20442;-69
2023/07/18 00:17:54;;;;;;;4.73;2.47;;;;;;;22.94;42.96;98003.81;5006047;28;20864;-72
2023/07/18 00:20:22;;;;;;;4.40;2.30;;;;;;;22.86;42.72;98007.59;5001853;28;20193;-71
2023/07/18 00:22:49;;;;;;;4.27;1.90;;;;;;;22.81;42.63;98007.38;4972182;28;20546;-69
2023/07/18 00:25:19;;;;;;;4.30;2.00;;;;;;;22.84;42.41;98001.63;5004366;28;20470;-69
2023/07/18 00:27:53;;;;;;;3.00;2.40;;;;;;;22.84;42.68;98002.44;5005016;28;20423;-72
2023/07/18 00:30:20;;;;;;;2.93;1.70;;;;;;;22.80;43.20;98005.75;5006468;28;20453;-69
2023/07/18 00:32:46;;;;;;;5.10;1.90;;;;;;;22.73;43.65;98008.44;5009303;28;20525;-70
2023/07/18 00:35:12;;;;;;;2.30;1.80;;;;;;;22.73;43.91;98007.63;5008666;28;20924;-70
2023/07/18 00:37:38;;;;;;;4.70;2.30;;;;;;;22.66;43.29;98010.31;5005426;28;20729;-70
2023/07/18 00:40:11;;;;;;;2.17;1.83;;;;;;;22.65;43.41;98006.81;5008465;28;20419;-72
2023/07/18 00:42:45;;;;;;;4.73;2.40;;;;;;;22.57;43.40;98007.06;5009774;28;20447;-69
2023/07/18 00:45:11;;;;;;;3.00;2.27;;;;;;;22.61;43.82;98008.28;5007248;28;20465;-69
2023/07/18 00:47:40;;;;;;;2.23;1.97;;;;;;;22.53;43.62;98005.84;5007606;28;20427;-72
2023/07/18 00:50:07;;;;;;;6.43;1.93;;;;;;;22.53;43.21;98001.34;5006336;28;20207;-71
2023/07/18 00:52:35;;;;;;;3.03;1.90;;;;;;;22.54;43.41;98002.97;5010487;28;20424;-69
2023/07/18 00:55:02;;;;;;;11.80;2.67;;;;;;;22.56;43.58;98005.41;5010251;28;20446;-70
2023/07/18 00:57:28;;;;;;;2.40;1.70;;;;;;;22.55;43.35;97988.59;5007643;28;20438;-71
2023/07/18 00:59:54;;;;;;;3.90;1.90;;;;;;;22.50;43.17;97993.72;5016315;28;20442;-69
2023/07/18 01:02:20;;;;;;;4.33;2.10;;;;;;;22.49;43.56;97988.59;5006399;28;20188;-71
2023/07/18 01:04:46;;;;;;;3.40;2.40;;;;;;;22.48;43.66;97993.13;5007021;28;21029;-69
2023/07/18 01:07:11;;;;;;;2.47;1.80;;;;;;;22.48;43.72;97985.09;5013232;28;20180;-69
2023/07/18 01:09:37;;;;;;;3.70;2.07;;;;;;;22.46;43.63;97992.50;5010815;28;20518;-69
2023/07/18 01:12:02;;;;;;;4.27;1.50;;;;;;;22.44;43.66;97986.53;5018426;28;20263;-72
2023/07/18 01:14:28;;;;;;;2.70;1.77;;;;;;;22.45;43.26;97988.19;5011590;28;20212;-70
2023/07/18 01:16:53;;;;;;;2.50;1.73;;;;;;;22.41;43.48;97992.31;5012889;28;20548;-70
2023/07/18 01:19:19;;;;;;;3.03;1.70;;;;;;;22.42;43.89;97993.13;5011057;28;20176;-72
2023/07/18 01:21:44;;;;;;;2.20;1.60;;;;;;;22.42;43.64;97983.28;5012283;28;20295;-70
2023/07/18 01:24:10;;;;;;;3.10;1.80;;;;;;;22.45;43.42;97984.72;5011506;28;20232;-69
2023/07/18 01:26:35;;;;;;;6.80;1.90;;;;;;;22.43;43.56;97979.56;5013505;28;20250;-70
2023/07/18 01:29:01;;;;;;;4.93;1.80;;;;;;;22.38;43.70;97982.84;5011360;28;20215;-71
2023/07/18 01:31:27;;;;;;;2.23;1.77;;;;;;;22.37;43.76;97983.06;5008833;28;20193;-70
2023/07/18 01:33:53;;;;;;;4.57;2.03;;;;;;;22.35;44.29;97977.94;5025806;28;20196;-69
2023/07/18 01:36:18;;;;;;;2.03;1.73;;;;;;;22.30;44.33;97984.94;5010883;28;20431;-70
2023/07/18 01:38:44;;;;;;;6.57;2.07;;;;;;;22.24;44.46;97974.06;5011341;28;20188;-70
2023/07/18 01:41:09;;;;;;;6.70;2.17;;;;;;;22.19;44.40;97978.38;5009838;28;20362;-72
2023/07/18 01:43:35;;;;;;;3.90;1.47;;;;;;;22.19;44.56;97968.50;5011280;28;20204;-69
2023/07/18 01:46:00;;;;;;;3.10;1.80;;;;;;;22.18;44.11;97985.53;5012696;28;20634;-70
2023/07/18 01:48:26;;;;;;;6.20;2.03;;;;;;;22.21;44.01;97982.47;5008756;28;20192;-72
2023/07/18 01:50:52;;;;;;;2.53;1.57;;;;;;;22.20;43.99;97978.16;5010686;28;20187;-69
2023/07/18 01:53:18;;;;;;;2.77;1.77;;;;;;;22.27;44.06;97980.00;5010647;28;20192;-69
2023/07/18 01:55:43;;;;;;;4.07;2.00;;;;;;;22.28;43.81;97971.78;5012580;28;20434;-71
2023/07/18 01:58:08;;;;;;;4.60;1.80;;;;;;;22.25;44.03;97974.84;5013977;28;20296;-72
2023/07/18 02:00:35;;;;;;;2.33;1.80;;;;;;;22.21;44.34;97971.78;5020931;28;20204;-70
2023/07/18 02:03:01;;;;;;;3.50;1.90;;;;;;;22.14;44.43;97971.00;5009937;28;20211;-69
2023/07/18 02:05:28;;;;;;;3.67;1.67;;;;;;;22.04;44.50;97970.59;5009915;28;20555;-69
2023/07/18 02:07:54;;;;;;;2.73;1.80;;;;;;;21.90;45.13;97975.13;5007079;28;20510;-71
2023/07/18 02:10:21;;;;;;;2.73;1.73;;;;;;;21.88;45.26;97966.50;5015371;28;20959;-70
2023/07/18 02:12:51;;;;;;;4.53;2.13;;;;;;;21.85;45.41;97966.94;5013638;28;20439;-69
2023/07/18 02:15:17;;;;;;;4.10;1.80;;;;;;;21.84;45.38;97960.75;5010618;28;20420;-68
2023/07/18 02:17:43;;;;;;;3.60;1.90;;;;;;;21.85;45.67;97957.06;5013798;28;20841;-69
2023/07/18 02:20:11;;;;;;;5.63;2.00;;;;;;;21.78;45.45;97969.59;5012693;28;20180;-71
2023/07/18 02:22:38;;;;;;;4.23;2.10;;;;;;;21.76;45.49;97968.97;5009085;28;20235;-69
2023/07/18 02:25:04;;;;;;;2.33;2.00;;;;;;;21.71;45.77;97972.28;5001763;28;20482;-71
2023/07/18 02:27:34;;;;;;;3.07;1.57;;;;;;;21.69;45.41;97973.47;5012336;28;20798;-73
2023/07/18 02:30:03;;;;;;;3.10;1.90;;;;;;;21.69;45.27;97973.47;5009915;28;20848;-71
2023/07/18 02:32:31;;;;;;;2.90;1.80;;;;;;;21.65;45.66;97969.59;5010509;28;20878;-70
2023/07/18 02:34:57;;;;;;;8.83;1.83;;;;;;;21.61;45.64;97969.19;5007719;28;20427;-70
2023/07/18 02:37:25;;;;;;;3.10;1.77;;;;;;;21.53;45.78;97969.34;5009154;28;20420;-75
2023/07/18 02:39:51;;;;;;;2.60;1.90;;;;;;;21.51;46.17;97966.91;5016654;28;20343;-70
2023/07/18 02:42:17;;;;;;;6.00;1.80;;;;;;;21.50;46.17;97959.91;5016005;28;20514;-70
2023/07/18 02:44:46;;;;;;;3.13;1.87;;;;;;;21.48;46.44;97967.31;5010510;28;20212;-73
2023/07/18 02:47:12;;;;;;;3.13;1.80;;;;;;;21.48;46.36;97972.63;5015721;28;20943;-73
2023/07/18 02:49:37;;;;;;;4.37;1.70;;;;;;;21.54;46.09;97960.31;5009996;28;20458;-71
2023/07/18 02:52:03;;;;;;;5.43;1.67;;;;;;;21.66;45.77;97969.38;5009538;28;20267;-70
2023/07/18 02:54:29;;;;;;;3.97;1.67;;;;;;;21.70;45.52;97972.47;5016038;28;20203;-70
2023/07/18 02:56:56;;;;;;;2.00;1.80;;;;;;;21.66;45.45;97968.59;5008789;28;20652;-69
2023/07/18 02:59:22;;;;;;;4.80;2.10;;;;;;;21.55;45.73;97972.63;5009155;28;21009;-72
2023/07/18 03:01:50;;;;;;;2.93;1.97;;;;;;;21.46;45.86;97966.69;5008489;28;20787;-72
2023/07/18 03:04:16;;;;;;;3.70;2.27;;;;;;;21.36;46.49;97966.25;5008654;28;21011;-70
2023/07/18 03:06:43;;;;;;;10.73;2.27;;;;;;;21.33;46.42;97964.84;5010986;28;20427;-70
2023/07/18 03:09:17;;;;;;;3.40;1.93;;;;;;;21.37;46.33;97960.72;5009183;28;20729;-69
2023/07/18 03:11:43;;;;;;;3.53;2.27;;;;;;;21.33;46.15;97962.97;5005909;28;20434;-69
2023/07/18 03:14:11;;;;;;;4.00;2.30;;;;;;;21.28;46.56;97965.44;5008661;28;21027;-70
2023/07/18 03:16:37;;;;;;;2.43;2.03;;;;;;;21.29;46.61;97956.44;5008409;28;20184;-70
2023/07/18 03:19:03;;;;;;;4.40;1.70;;;;;;;21.28;46.95;97956.63;5009417;28;20427;-70
2023/07/18 03:21:28;;;;;;;4.97;2.00;;;;;;;21.21;47.05;97951.28;5008335;28;20426;-74
2023/07/18 03:23:54;;;;;;;3.20;1.87;;;;;;;21.17;46.92;97945.53;5007396;28;21593;-70
2023/07/18 03:26:19;;;;;;;2.43;1.90;;;;;;;21.16;47.00;97948.41;5012015;28;20231;-70
2023/07/18 03:28:45;;;;;;;3.43;2.33;;;;;;;21.16;47.23;97943.06;5010389;28;20875;-72
2023/07/18 03:31:10;;;;;;;4.53;2.30;;;;;;;21.09;47.16;97944.91;5008394;28;20176;-70
2023/07/18 03:33:36;;;;;;;8.73;2.13;;;;;;;21.02;47.09;97942.22;5007539;28;20235;-73
2023/07/18 03:36:02;;;;;;;2.10;1.90;;;;;;;20.95;47.48;97947.53;5008744;28;20676;-73
2023/07/18 03:38:27;;;;;;;6.07;1.87;;;;;;;20.93;47.59;97941.56;5007947;28;20188;-72
2023/07/18 03:40:53;;;;;;;2.17;1.70;;;;;;;20.88;47.47;97941.38;5010857;28;20477;-70
2023/07/18 03:43:18;;;;;;;3.83;1.93;;;;;;;20.81;48.00;97951.16;5009800;28;20287;-70
2023/07/18 03:45:44;;;;;;;6.20;1.80;;;;;;;20.84;47.69;97948.94;5009434;28;20230;-72
2023/07/18 03:48:09;;;;;;;2.00;1.80;;;;;;;20.84;47.69;97938.28;5008110;28;20184;-71
2023/07/18 03:50:36;;;;;;;5.10;1.83;;;;;;;20.90;47.87;97944.66;5011369;28;20729;-72
2023/07/18 03:53:01;;;;;;;6.00;2.27;;;;;;;20.90;47.44;97944.66;5008921;28;20214;-72
2023/07/18 03:55:26;;;;;;;3.67;1.83;;;;;;;20.92;47.35;97939.94;5008386;28;20809;-72
2023/07/18 03:57:52;;;;;;;4.60;1.93;;;;;;;20.85;47.75;97947.94;5013707;28;20172;-72
2023/07/18 04:00:18;;;;;;;6.77;2.37;;;;;;;20.87;47.49;97945.06;5009105;28;20176;-71
2023/07/18 04:02:48;;;;;;;2.80;1.53;;;;;;;20.89;47.67;97936.84;5008317;28;20238;-70
2023/07/18 04:05:14;;;;;;;3.20;1.70;;;;;;;20.79;47.92;97938.06;4987228;28;20459;-71
2023/07/18 04:07:41;;;;;;;2.57;2.00;;;;;;;20.77;47.86;97933.97;4988141;28;20407;-74
2023/07/18 04:10:06;;;;;;;3.37;1.97;;;;;;;20.79;48.23;97931.94;5007773;28;21046;-73
2023/07/18 04:12:32;;;;;;;4.43;2.10;;;;;;;20.79;48.10;97940.72;5014717;28;20510;-70
2023/07/18 04:14:57;;;;;;;5.20;2.30;;;;;;;20.81;47.81;97948.50;5008047;28;20255;-70
2023/07/18 04:17:24;;;;;;;6.13;2.27;;;;;;;20.81;47.91;97940.50;5009024;28;20218;-73
2023/07/18 04:19:51;;;;;;;4.23;2.00;;;;;;;20.83;48.23;97941.97;5010006;28;20191;-72
2023/07/18 04:22:16;;;;;;;6.73;1.90;;;;;;;20.87;47.84;97939.72;5008406;28;20408;-70
2023/07/18 04:24:42;;;;;;;4.17;1.87;;;;;;;20.92;47.86;97937.25;5007090;28;21002;-70
2023/07/18 04:27:08;;;;;;;3.93;1.90;;;;;;;21.00;47.81;97934.44;5015332;28;20610;-71
2023/07/18 04:29:33;;;;;;;2.63;2.00;;;;;;;20.97;48.11;97934.84;5011290;28;20180;-69
2023/07/18 04:31:59;;;;;;;2.03;1.60;;;;;;;20.98;48.34;97931.16;5009789;28;20204;-69
2023/07/18 04:34:24;;;;;;;3.47;2.37;;;;;;;21.00;48.16;97934.44;5013183;28;20204;-71
2023/07/18 04:36:49;;;;;;;8.53;2.23;;;;;;;20.96;48.54;97933.19;5007026;28;20176;-71
2023/07/18 04:39:15;;;;;;;3.97;1.90;;;;;;;20.86;48.81;97932.75;5008630;28;20224;-70
2023/07/18 04:41:40;;;;;;;8.80;2.03;;;;;;;20.92;48.28;97931.94;5014001;28;20176;-70
2023/07/18 04:44:06;;;;;;;3.47;2.00;;;;;;;20.98;48.64;97931.16;5012861;28;20250;-70
2023/07/18 04:46:32;;;;;;;3.00;2.10;;;;;;;21.06;48.15;97923.97;5011631;28;20267;-69
2023/07/18 04:48:58;;;;;;;3.50;2.10;;;;;;;21.14;48.47;97929.13;5011126;28;20354;-73
2023/07/18 04:51:24;;;;;;;4.97;2.30;;;;;;;21.16;48.43;97927.91;5003897;28;20192;-69
2023/07/18 04:53:49;;;;;;;3.43;2.20;;;;;;;21.22;48.43;97928.94;5010722;28;20796;-72
2023/07/18 04:56:15;;;;;;;5.90;2.77;;;;;;;21.27;48.46;97925.66;5023794;28;20431;-70
2023/07/18 04:58:40;;;;;;;2.33;1.90;;;;;;;21.29;48.36;97921.78;5014355;28;20327;-74
2023/07/18 05:01:06;;;;;;;4.93;2.10;;;;;;;21.35;48.39;97927.28;5010785;28;20184;-70
2023/07/18 05:03:32;;;;;;;3.13;2.17;;;;;;;21.33;47.95;97933.66;5011721;28;20208;-69
2023/07/18 05:05:57;;;;;;;7.43;2.40;;;;;;;21.35;48.11;97922.81;5012096;28;20278;-70
2023/07/18 05:08:23;;;;;;;12.70;2.43;;;;;;;21.38;48.07;97918.91;5012718;28;20220;-68
2023/07/18 05:10:50;;;;;;;5.43;2.10;;;;;;;21.39;48.29;97924.00;5009118;28;20263;-69
2023/07/18 05:13:15;;;;;;;4.27;2.07;;;;;;;21.43;47.92;97927.09;5011193;28;20638;-71
2023/07/18 05:15:44;;;;;;;2.50;1.80;;;;;;;21.51;47.97;97924.22;5011318;28;20468;-70
2023/07/18 05:18:10;;;;;;;9.00;1.80;;;;;;;21.64;48.02;97918.09;5012099;28;20871;-73
2023/07/18 05:20:35;;;;;;;2.50;1.90;;;;;;;21.74;47.59;97920.34;5012348;28;20427;-69
2023/07/18 05:23:01;;;;;;;3.80;2.33;;;;;;;21.81;47.23;97912.34;5010886;28;20207;-70
2023/07/18 05:25:27;;;;;;;3.63;1.90;;;;;;;21.87;47.25;97911.50;5012432;28;20219;-71
2023/07/18 05:27:52;;;;;;;5.93;2.03;;;;;;;21.95;47.08;97908.63;5010339;28;20215;-71
2023/07/18 05:30:19;;;;;;;4.43;2.13;;;;;;;22.03;47.26;97913.72;5011126;28;20419;-74
2023/07/18 05:32:45;;;;;;;4.43;1.90;;;;;;;22.12;47.17;97909.00;5010609;28;20216;-71
2023/07/18 05:35:13;;;;;;;3.50;1.93;;;;;;;22.20;46.89;97911.41;5009588;28;20443;-71
2023/07/18 05:37:40;;;;;;;5.23;2.23;;;;;;;22.30;46.74;97902.16;5011083;28;20419;-70
2023/07/18 05:40:06;;;;;;;6.30;2.40;;;;;;;22.38;46.61;97902.72;5016136;28;20423;-71
2023/07/18 05:42:31;;;;;;;4.40;2.00;;;;;;;22.47;46.20;97906.00;5011196;28;20419;-71
2023/07/18 05:44:56;;;;;;;2.37;1.90;;;;;;;22.59;46.09;97905.34;5010314;28;20514;-70
2023/07/18 05:47:22;;;;;;;4.03;2.07;;;;;;;22.69;45.75;97908.38;5010367;28;20279;-70
2023/07/18 05:49:47;;;;;;;4.60;1.87;;;;;;;22.81;45.46;97905.84;5013325;28;20259;-71
2023/07/18 05:52:13;;;;;;;5.10;2.10;;;;;;;22.94;45.09;97905.78;5008984;28;20234;-70
2023/07/18 05:54:38;;;;;;;6.60;2.50;;;;;;;23.05;44.45;97901.59;5007330;28;20196;-70
2023/07/18 05:57:04;;;;;;;7.60;2.17;;;;;;;23.17;44.14;97889.19;5007918;28;20268;-75
2023/07/18 05:59:30;;;;;;;3.20;2.13;;;;;;;23.14;43.78;97894.97;5008353;28;20670;-72
2023/07/18 06:01:56;;;;;;;3.87;2.27;;;;;;;23.17;43.45;97885.69;5008709;28;20176;-70
2023/07/18 06:04:21;;;;;;;8.40;2.40;;;;;;;23.28;43.87;97889.53;5010124;28;20450;-71
2023/07/18 06:06:46;;;;;;;2.80;2.40;;;;;;;23.42;43.84;97884.88;5012038;28;20267;-72
2023/07/18 06:09:12;;;;;;;4.77;2.67;;;;;;;23.57;43.31;97879.19;5008819;28;20681;-71
2023/07/18 06:11:38;;;;;;;11.90;2.50;;;;;;;23.54;42.69;97882.34;5013597;28;20675;-71
2023/07/18 06:14:05;;;;;;;5.03;2.50;;;;;;;23.64;42.52;97882.66;5009288;28;20628;-71
2023/07/18 06:16:31;;;;;;;5.23;2.33;;;;;;;23.67;41.97;97873.34;5015348;28;20691;-73
2023/07/18 06:18:56;;;;;;;3.67;2.23;;;;;;;23.80;42.29;97883.94;5011380;28;20416;-71
2023/07/18 06:21:26;;;;;;;3.43;2.20;;;;;;;23.94;42.36;97871.25;5012518;28;20191;-70
2023/07/18 06:23:54;;;;;;;8.00;2.10;;;;;;;24.10;42.07;97869.03;5013587;28;20722;-71
2023/07/18 06:26:20;;;;;;;3.53;2.20;;;;;;;24.20;41.35;97863.94;5009781;28;20462;-69
2023/07/18 06:28:45;;;;;;;6.77;2.10;;;;;;;24.22;40.93;97861.88;5013230;28;21147;-70
2023/07/18 06:31:11;;;;;;;5.07;2.27;;;;;;;24.30;41.14;97858.91;5009812;28;20188;-71
2023/07/18 06:33:38;;;;;;;3.90;2.10;;;;;;;24.39;40.30;97868.25;5009291;28;20196;-70
2023/07/18 06:36:03;;;;;;;3.20;2.10;;;;;;;24.51;40.24;97860.25;5010909;28;20447;-70
2023/07/18 06:38:29;;;;;;;3.03;2.40;;;;;;;24.69;39.96;97862.13;5012761;28;20430;-70
2023/07/18 06:40:55;;;;;;;6.33;3.17;;;;;;;24.84;40.16;97860.88;5009213;28;20649;-72
2023/07/18 06:43:21;;;;;;;11.70;7.90;;;;;;;24.98;39.84;97859.63;5013286;28;20641;-69
2023/07/18 06:45:47;;;;;;;6.63;4.20;;;;;;;25.14;39.37;97857.34;5012558;28;20411;-69
2023/07/18 06:48:13;;;;;;;6.80;2.93;;;;;;;25.29;38.96;97856.88;5014645;28;20180;-71
2023/07/18 06:50:49;;;;;;;5.63;2.00;;;;;;;25.35;38.04;97857.81;5008055;28;20509;-70
2023/07/18 06:53:19;;;;;;;5.80;2.73;;;;;;;25.45;38.10;97856.22;5019310;28;20521;-69
2023/07/18 06:55:46;;;;;;;2.67;2.10;;;;;;;25.56;38.19;97857.28;5010924;28;20517;-70
2023/07/18 06:58:12;;;;;;;17.17;2.80;;;;;;;25.66;37.74;97853.19;5016019;28;20433;-71
2023/07/18 07:00:39;;;;;;;18.70;12.43;;;;;;;25.74;37.66;97850.16;5017074;28;20482;-69
2023/07/18 07:03:04;;;;;;;4.43;2.67;;;;;;;25.84;37.66;97847.69;5006718;28;20862;-69
2023/07/18 07:05:30;;;;;;;6.90;2.90;;;;;;;25.86;37.46;97847.47;5009022;28;20486;-68
2023/07/18 07:07:55;;;;;;;4.90;2.63;;;;;;;26.00;37.21;97835.41;5010521;28;20182;-69
2023/07/18 07:10:21;;;;;;;2.97;2.67;;;;;;;26.13;37.15;97841.59;5011656;28;20898;-71
2023/07/18 07:12:47;;;;;;;7.80;2.50;;;;;;;26.20;36.99;97840.41;5011928;28;20855;-70
2023/07/18 07:15:12;;;;;;;5.63;2.87;;;;;;;26.31;36.54;97836.03;5015017;28;20230;-75
2023/07/18 07:17:38;;;;;;;6.33;3.13;;;;;;;26.28;36.20;97830.34;5014249;28;20481;-70
2023/07/18 07:20:11;;;;;;;6.37;2.50;;;;;;;26.34;36.53;97832.03;5008670;28;20190;-72
2023/07/18 07:22:38;;;;;;;11.13;2.47;;;;;;;26.51;36.66;97822.16;5010782;28;20415;-72
2023/07/18 07:25:04;;;;;;;3.50;2.53;;;;;;;26.60;35.84;97822.59;5014275;28;20697;-70
2023/07/18 07:27:29;;;;;;;3.93;2.40;;;;;;;26.75;35.96;97819.38;5013061;28;20180;-70
2023/07/18 07:29:55;;;;;;;4.83;2.37;;;;;;;26.82;34.98;97816.56;5010090;28;20424;-69
2023/07/18 07:32:20;;;;;;;4.37;2.77;;;;;;;26.83;34.86;97813.63;5007459;28;20267;-71
2023/07/18 07:34:46;;;;;;;5.10;3.37;;;;;;;26.96;35.28;97809.81;5015375;28;20195;-70
2023/07/18 07:37:11;;;;;;;4.00;2.70;;;;;;;27.09;34.83;97811.34;5013738;28;20172;-70
2023/07/18 07:39:37;;;;;;;8.23;2.30;;;;;;;27.17;33.78;97809.31;5011926;28;21537;-70
2023/07/18 07:42:02;;;;;;;7.70;2.50;;;;;;;27.25;33.96;97808.88;5010869;28;20637;-70
2023/07/18 07:44:28;;;;;;;4.07;2.10;;;;;;;27.35;34.10;97800.97;5008844;28;20200;-70
2023/07/18 07:46:55;;;;;;;6.70;2.70;;;;;;;27.40;33.08;97798.34;5010842;28;20849;-70
2023/07/18 07:49:20;;;;;;;3.70;2.23;;;;;;;27.35;32.87;97798.28;5012363;28;20184;-70
2023/07/18 07:51:46;;;;;;;9.17;4.03;;;;;;;27.36;33.37;97797.22;5011709;28;20426;-69
2023/07/18 07:54:11;;;;;;;8.20;3.30;;;;;;;27.53;33.30;97788.34;5015857;28;20521;-68
2023/07/18 07:56:37;;;;;;;3.43;2.07;;;;;;;27.68;32.34;97791.22;5006302;28;20635;-72
2023/07/18 07:59:02;;;;;;;4.10;1.87;;;;;;;27.67;31.02;97783.38;5020526;28;20663;-70
2023/07/18 08:01:28;;;;;;;2.73;1.93;;;;;;;27.87;31.47;97767.50;5007674;28;20317;-71
2023/07/18 08:03:53;;;;;;;5.10;2.03;;;;;;;27.90;31.53;97766.19;5013890;28;20319;-71
2023/07/18 08:06:19;;;;;;;7.10;2.20;;;;;;;28.05;31.27;97776.31;5013310;28;20251;-70
2023/07/18 08:08:44;;;;;;;8.33;1.63;;;;;;;28.11;30.24;97782.59;5009323;28;20176;-71
2023/07/18 08:11:09;;;;;;;2.53;1.70;;;;;;;28.14;30.14;97774.00;5011141;28;20263;-72
2023/07/18 08:13:35;;;;;;;6.47;2.50;;;;;;;28.13;31.19;97770.53;5009425;28;20279;-70
2023/07/18 08:16:00;;;;;;;11.93;2.17;;;;;;;28.28;30.91;97769.88;5015986;28;20187;-70
2023/07/18 08:18:26;;;;;;;6.50;2.53;;;;;;;28.45;31.10;97772.44;5017880;28;20729;-72
2023/07/18 08:20:51;;;;;;;2.43;2.20;;;;;;;28.59;30.45;97767.47;5011279;28;20637;-70
2023/07/18 08:23:17;;;;;;;2.13;1.70;;;;;;;28.76;30.52;97763.84;5012854;28;20278;-70
2023/07/18 08:25:43;;;;;;;5.77;1.83;;;;;;;28.91;30.05;97763.97;5010012;28;20199;-69
2023/07/18 08:28:09;;;;;;;7.60;2.00;;;;;;;29.07;30.11;97761.41;5009029;28;20688;-70
2023/07/18 08:30:35;;;;;;;3.63;1.80;;;;;;;29.11;28.97;97757.91;5017889;28;20454;-71
2023/07/18 08:33:00;;;;;;;5.30;1.80;;;;;;;29.23;29.48;97748.81;5017797;28;20446;-72
2023/07/18 08:35:26;;;;;;;2.70;1.70;;;;;;;29.31;29.41;97751.00;5020349;28;20215;-70
2023/07/18 08:37:51;;;;;;;4.23;2.33;;;;;;;29.50;29.95;97742.50;5016640;28;20187;-71
2023/07/18 08:40:17;;;;;;;3.03;2.17;;;;;;;29.66;29.68;97744.22;5022207;28;20198;-72
2023/07/18 08:42:42;;;;;;;5.33;2.43;;;;;;;29.69;28.83;97746.38;5012825;28;20192;-70
2023/07/18 08:45:13;;;;;;;4.27;2.10;;;;;;;29.63;28.18;97746.59;5012011;28;20315;-70
2023/07/18 08:47:40;;;;;;;3.37;2.47;;;;;;;29.73;28.56;97731.25;5019418;28;20239;-72
2023/07/18 08:50:09;;;;;;;3.00;2.10;;;;;;;29.86;29.12;97727.28;5017768;28;20485;-71
2023/07/18 08:52:36;;;;;;;5.63;2.20;;;;;;;29.99;28.33;97736.78;5019036;28;20517;-70
2023/07/18 08:55:03;;;;;;;3.47;2.23;;;;;;;30.09;27.98;97738.69;5013505;28;20420;-71
2023/07/18 08:57:30;;;;;;;7.13;1.60;;;;;;;30.21;27.95;97743.06;5014224;28;20434;-70
2023/07/18 08:59:55;;;;;;;3.50;1.60;;;;;;;30.23;27.32;97727.38;5012938;28;21219;-70
2023/07/18 09:02:21;;;;;;;2.23;2.00;;;;;;;30.33;27.41;97732.78;5017017;28;20442;-71
2023/07/18 09:04:47;;;;;;;4.53;1.60;;;;;;;30.43;27.47;97727.41;5015637;28;20724;-70
2023/07/18 09:07:14;;;;;;;14.77;1.90;;;;;;;30.35;26.89;97719.81;5012259;28;20594;-72
2023/07/18 09:09:46;;;;;;;2.93;1.80;;;;;;;30.34;27.12;97719.00;5017814;28;20283;-70
2023/07/18 09:12:13;;;;;;;4.87;1.70;;;;;;;30.50;27.21;97719.03;5011603;28;20426;-70
2023/07/18 09:14:38;;;;;;;5.87;1.90;;;;;;;30.64;27.61;97716.59;5013992;28;20876;-72
2023/07/18 09:17:05;;;;;;;8.03;5.10;;;;;;;30.90;27.64;97722.00;5013717;28;20429;-70
2023/07/18 09:19:45;;;;;;;8.33;2.37;;;;;;;31.07;27.60;97714.41;5012780;28;20739;-72
2023/07/18 09:22:13;;;;;;;6.03;2.20;;;;;;;31.22;26.90;97713.56;5012849;28;20447;-70
2023/07/18 09:24:39;;;;;;;5.43;2.33;;;;;;;31.21;26.33;97700.31;5011463;28;20538;-70
2023/07/18 09:27:06;;;;;;;6.20;2.17;;;;;;;31.09;26.41;97704.13;5016440;28;20577;-71
2023/07/18 09:29:32;;;;;;;3.70;2.43;;;;;;;31.31;27.01;97704.91;5009876;28;20468;-68
2023/07/18 09:31:58;;;;;;;3.23;2.00;;;;;;;31.29;26.32;97709.78;5008768;28;20427;-70
2023/07/18 09:34:25;;;;;;;3.50;2.57;;;;;;;31.23;26.63;97711.69;5014047;28;20593;-69
2023/07/18 09:36:58;;;;;;;5.30;2.47;;;;;;;31.39;26.46;97710.53;5013864;28;20208;-70
2023/07/18 09:39:24;;;;;;;6.77;2.37;;;;;;;31.31;26.29;97711.13;5008981;28;20435;-73
2023/07/18 09:41:51;;;;;;;3.10;2.40;;;;;;;31.51;26.16;97704.00;5016363;28;20430;-72
2023/07/18 09:44:18;;;;;;;5.17;2.03;;;;;;;31.40;26.32;97709.47;5010004;28;20459;-71
2023/07/18 09:46:43;;;;;;;3.33;2.27;;;;;;;31.44;26.10;97706.19;5011841;28;20438;-69
2023/07/18 09:49:09;;;;;;;4.33;2.17;;;;;;;31.38;26.24;97713.53;5016660;28;20857;-71
2023/07/18 09:51:37;;;;;;;6.63;2.43;;;;;;;31.32;26.60;97720.84;5015299;28;20282;-69
2023/07/18 09:54:05;;;;;;;3.37;2.40;;;;;;;31.21;27.08;97724.69;5023515;28;20458;-71
2023/07/18 09:56:34;;;;;;;7.00;2.50;;;;;;;31.51;26.60;97728.38;5016049;28;20419;-71
2023/07/18 09:59:04;;;;;;;3.50;2.47;;;;;;;31.69;26.29;97741.34;5018017;28;20446;-69
2023/07/18 10:01:31;;;;;;;4.80;2.60;;;;;;;31.74;26.47;97764.09;5019507;28;20426;-70
2023/07/18 10:03:57;;;;;;;4.27;2.40;;;;;;;31.79;26.71;97789.25;5022782;28;20455;-70
2023/07/18 10:06:23;;;;;;;8.07;2.60;;;;;;;31.55;26.57;97794.44;5017637;28;20485;-69
2023/07/18 10:08:49;;;;;;;8.40;2.70;;;;;;;31.44;26.94;97799.09;5020540;28;20419;-71
2023/07/18 10:11:14;;;;;;;5.37;2.53;;;;;;;31.27;27.56;97780.41;5017439;28;20526;-71
2023/07/18 10:14:13;;;;;;;7.23;2.60;;;;;;;31.02;27.96;97775.84;5018027;28;20466;-74
2023/07/18 10:16:41;;;;;;;5.93;2.83;;;;;;;30.65;28.37;97758.78;5011216;28;20200;-71
2023/07/18 10:19:18;;;;;;;10.20;2.53;;;;;;;30.47;28.36;97739.31;5017942;28;20427;-70
2023/07/18 10:21:46;;;;;;;4.80;2.50;;;;;;;30.28;28.78;97719.25;5024256;28;20518;-69
2023/07/18 10:24:24;;;;;;;6.40;3.00;;;;;;;30.03;29.04;97686.53;5020069;28;20502;-69
2023/07/18 10:26:57;;;;;;;3.80;2.00;;;;;;;29.85;29.62;97662.69;5013842;28;20454;-71
2023/07/18 10:29:22;;;;;;;5.30;3.20;;;;;;;29.69;29.77;97627.56;5016976;28;20449;-70
2023/07/18 10:31:48;;;;;;;4.00;2.57;;;;;;;29.56;30.13;97555.16;5021599;28;20534;-70
2023/07/18 10:34:15;;;;;;;3.33;2.83;;;;;;;29.43;30.59;97467.44;5023450;28;20889;-72
2023/07/18 10:36:55;;;;;;;7.03;2.57;;;;;;;29.22;31.21;97364.88;5023066;28;20200;-73
2023/07/18 10:39:41;;;;;;;5.60;2.47;;;;;;;29.18;31.69;97347.59;5019550;28;20936;-71
2023/07/18 10:42:20;;;;;;;5.10;3.40;;;;;;;29.08;31.25;97444.69;5012727;28;20418;-71
2023/07/18 10:44:55;;;;;;;5.43;3.80;;;;;;;29.33;31.65;97499.78;5010932;28;20658;-70
2023/07/18 10:47:21;;;;;;;9.17;4.13;;;;;;;29.55;31.37;97548.16;5010096;28;20485;-72
2023/07/18 10:49:47;;;;;;;5.77;3.87;;;;;;;29.78;30.95;97590.03;5013427;28;20438;-73
2023/07/18 10:52:14;;;;;;;3.67;2.30;;;;;;;29.93;30.07;97605.44;5013474;28;20432;-73
2023/07/18 10:54:56;;;;;;;5.73;2.50;;;;;;;29.99;30.33;97641.44;5012298;28;20451;-73
2023/07/18 10:57:29;;;;;;;3.77;2.83;;;;;;;30.15;30.03;97655.75;5012635;28;20422;-72
2023/07/18 10:59:54;;;;;;;6.13;2.67;;;;;;;30.40;29.52;97690.06;5014431;28;20411;-71
2023/07/18 11:02:20;;;;;;;4.07;2.63;;;;;;;30.49;29.45;97703.88;5016658;28;20428;-71
2023/07/18 11:04:47;;;;;;;6.97;2.73;;;;;;;30.56;29.25;97727.97;5013685;28;20789;-72
2023/07/18 11:07:12;;;;;;;5.33;3.20;;;;;;;30.56;28.89;97763.13;5011351;28;20180;-71
2023/07/18 11:09:38;;;;;;;5.93;3.10;;;;;;;30.47;29.72;97782.56;5018080;28;20510;-73
2023/07/18 11:12:04;;;;;;;3.73;3.00;;;;;;;30.40;29.84;97748.75;5014938;28;20211;-71
2023/07/18 11:14:39;;;;;;;5.60;3.07;;;;;;;30.27;30.39;97721.16;5009223;28;20219;-70
2023/07/18 11:17:14;;;;;;;3.33;3.03;;;;;;;30.02;30.12;97748.94;5012496;28;20480;-72
2023/07/18 11:19:40;;;;;;;6.40;3.47;;;;;;;29.86;30.25;97735.38;5015940;28;20423;-72
2023/07/18 11:22:06;;;;;;;6.87;3.10;;;;;;;29.81;30.80;97742.63;5011715;28;20496;-70
2023/07/18 11:24:33;;;;;;;4.20;3.00;;;;;;;29.63;30.81;97763.63;5017518;28;20204;-70
2023/07/18 11:27:14;;;;;;;10.40;3.00;;;;;;;29.46;30.88;97753.03;5011971;28;20423;-69
2023/07/18 11:29:40;;;;;;;8.47;2.97;;;;;;;29.18;31.78;97746.91;5011749;28;20485;-70
2023/07/18 11:32:06;;;;;;;7.93;3.10;;;;;;;29.19;31.86;97748.53;5008107;28;20431;-70